createdAt,value
2018-12-08T00:03:52.750Z,986.85
2018-12-08T00:13:52.739Z,987.06
2018-12-08T00:23:52.757Z,987.11
2018-12-08T00:33:52.792Z,987.18
2018-12-08T00:43:52.751Z,987.10
2018-12-08T00:54:00.078Z,987.25
2018-12-08T01:03:52.706Z,987.30
2018-12-08T01:13:52.710Z,987.46
2018-12-08T01:23:52.719Z,987.39
2018-12-08T01:33:52.747Z,987.41
2018-12-08T01:43:52.721Z,987.39
2018-12-08T01:53:52.652Z,987.39
2018-12-08T02:03:52.963Z,987.22
2018-12-08T02:13:52.697Z,987.16
2018-12-08T02:23:52.716Z,986.95
2018-12-08T02:33:52.701Z,986.91
2018-12-08T02:43:52.571Z,986.78
2018-12-08T02:53:52.625Z,986.75
2018-12-08T03:03:52.731Z,986.63
2018-12-08T03:13:52.623Z,986.61
2018-12-08T03:23:52.623Z,986.42
2018-12-08T03:33:52.719Z,986.66
2018-12-08T03:43:52.630Z,986.37
2018-12-08T03:53:52.705Z,986.11
2018-12-08T04:03:52.914Z,986.30
2018-12-08T04:13:52.728Z,986.13
2018-12-08T04:23:53.881Z,985.97
2018-12-08T04:33:52.782Z,985.97
2018-12-08T04:43:52.702Z,986.24
2018-12-08T04:53:52.698Z,985.95
2018-12-08T05:03:52.786Z,985.62
2018-12-08T05:13:52.675Z,986.01
2018-12-08T05:23:52.658Z,985.79
2018-12-08T05:33:52.671Z,985.87
2018-12-08T05:43:52.669Z,985.93
2018-12-08T05:53:52.623Z,985.92
2018-12-08T06:03:52.703Z,985.87
2018-12-08T06:13:53.326Z,985.68
2018-12-08T06:23:52.670Z,986.01
2018-12-08T06:33:52.709Z,985.80
2018-12-08T06:43:52.658Z,985.64
2018-12-08T06:53:52.835Z,985.62
2018-12-08T07:03:52.643Z,985.40
2018-12-08T07:13:52.627Z,985.57
2018-12-08T07:23:52.633Z,985.78
2018-12-08T07:33:52.708Z,986.08
2018-12-08T07:43:52.582Z,985.43
2018-12-08T07:53:52.695Z,985.48
2018-12-08T08:03:52.619Z,985.66
2018-12-08T08:13:53.455Z,985.57
2018-12-08T08:23:52.622Z,985.29
2018-12-08T08:33:52.604Z,985.42
2018-12-08T08:43:52.580Z,985.51
2018-12-08T08:53:52.576Z,985.28
2018-12-08T09:03:52.651Z,985.36
2018-12-08T09:13:52.624Z,985.12
2018-12-08T09:23:52.642Z,985.15
2018-12-08T09:33:53.047Z,985.14
2018-12-08T09:43:52.608Z,985.29
2018-12-08T09:53:52.575Z,985.18
2018-12-08T10:03:52.612Z,985.34
2018-12-08T10:13:52.639Z,985.32
2018-12-08T10:23:52.570Z,985.37
2018-12-08T10:33:52.543Z,985.44
2018-12-08T10:43:52.583Z,985.44
2018-12-08T10:53:52.539Z,985.22
2018-12-08T11:03:52.589Z,985.43
2018-12-08T11:13:52.587Z,985.38
2018-12-08T11:23:52.602Z,985.31
2018-12-08T11:33:52.478Z,985.45
2018-12-08T11:43:54.885Z,985.24
2018-12-08T11:53:52.558Z,985.06
2018-12-08T12:03:52.552Z,985.15
2018-12-08T12:13:52.681Z,985.13
2018-12-08T12:23:52.687Z,985.09
2018-12-08T12:33:52.534Z,985.15
2018-12-08T12:43:52.545Z,985.17
2018-12-08T12:53:52.596Z,985.21
2018-12-08T13:03:52.520Z,985.12
2018-12-08T13:13:52.545Z,985.15
2018-12-08T13:23:52.526Z,985.01
2018-12-08T13:33:52.599Z,984.81
2018-12-08T13:43:56.323Z,984.76
2018-12-08T13:53:52.613Z,984.48
2018-12-08T14:03:52.503Z,984.63
2018-12-08T14:13:52.546Z,984.74
2018-12-08T14:23:52.618Z,984.65
2018-12-08T14:33:52.542Z,984.62
2018-12-08T14:43:52.550Z,984.57
2018-12-08T14:53:52.485Z,984.54
2018-12-08T15:03:52.513Z,984.41
2018-12-08T15:13:52.628Z,984.32
2018-12-08T15:23:53.224Z,984.19
2018-12-08T15:33:52.476Z,983.99
2018-12-08T15:43:52.602Z,983.95
2018-12-08T15:53:56.339Z,983.92
2018-12-08T16:03:52.552Z,984.02
2018-12-08T16:13:52.523Z,983.97
2018-12-08T16:23:53.534Z,983.78
2018-12-08T16:33:52.552Z,983.56
2018-12-08T16:43:52.524Z,983.45
2018-12-08T16:53:52.409Z,983.17
2018-12-08T17:03:52.548Z,983.09
2018-12-08T17:13:52.551Z,982.52
2018-12-08T17:23:52.440Z,982.19
2018-12-08T17:33:52.478Z,982.28
2018-12-08T17:43:52.481Z,981.70
2018-12-08T17:53:52.496Z,981.41
2018-12-08T18:03:52.565Z,981.40
2018-12-08T18:13:52.502Z,981.02
2018-12-08T18:23:52.498Z,980.31
2018-12-08T18:33:52.387Z,980.01
2018-12-08T18:43:52.494Z,979.73
2018-12-08T18:53:52.432Z,979.74
2018-12-08T19:03:52.498Z,979.19
2018-12-08T19:13:52.508Z,979.03
2018-12-08T19:23:52.431Z,978.59
2018-12-08T19:33:52.500Z,979.24
2018-12-08T19:43:52.522Z,978.30
2018-12-08T19:53:52.434Z,977.94
2018-12-08T20:03:52.521Z,977.92
2018-12-08T20:13:52.498Z,977.82
2018-12-08T20:23:52.459Z,977.69
2018-12-08T20:33:52.404Z,977.77
2018-12-08T20:43:52.484Z,977.25
2018-12-08T20:53:52.529Z,977.45
2018-12-08T21:03:52.517Z,977.08
2018-12-08T21:13:52.460Z,977.06
2018-12-08T21:23:53.542Z,976.89
2018-12-08T21:33:52.495Z,976.99
2018-12-08T21:43:52.522Z,976.93
2018-12-08T21:53:53.583Z,976.88
2018-12-08T22:03:52.416Z,976.73
2018-12-08T22:13:52.447Z,976.73
2018-12-08T22:23:52.998Z,976.96
2018-12-08T22:33:52.532Z,976.68
2018-12-08T22:43:52.479Z,976.60
2018-12-08T22:53:52.408Z,976.48
2018-12-08T23:03:52.428Z,976.65
2018-12-08T23:13:52.431Z,976.38
2018-12-08T23:23:52.394Z,976.48
2018-12-08T23:33:52.367Z,976.79
2018-12-08T23:43:52.492Z,976.74
2018-12-08T23:53:52.439Z,976.93
